createdAt,value
2023-01-19T00:00:40.221Z,99231.75
2023-01-19T00:03:16.073Z,99224.56
2023-01-19T00:05:44.475Z,99218.44
2023-01-19T00:08:15.001Z,99218.69
2023-01-19T00:10:44.020Z,99235.59
2023-01-19T00:13:11.529Z,99236.59
2023-01-19T00:15:38.545Z,99234.56
2023-01-19T00:18:05.894Z,99217.47
2023-01-19T00:20:32.977Z,99257.81
2023-01-19T00:23:00.549Z,99218.38
2023-01-19T00:25:28.223Z,99233.91
2023-01-19T00:27:56.007Z,99216.03
2023-01-19T00:30:24.738Z,99225.28
2023-01-19T00:32:51.789Z,99219.38
2023-01-19T00:35:19.469Z,99234.63
2023-01-19T00:37:46.518Z,99204.47
2023-01-19T00:40:14.395Z,99238.47
2023-01-19T00:42:41.541Z,99231.28
2023-01-19T00:45:10.269Z,99260.25
2023-01-19T00:47:39.339Z,99216.28
2023-01-19T00:50:14.175Z,99216.44
2023-01-19T00:52:41.907Z,99198.84
2023-01-19T00:55:11.189Z,99232.50
2023-01-19T00:57:39.692Z,99224.34
2023-01-19T01:00:11.372Z,99199.66
2023-01-19T01:02:40.199Z,99228.25
2023-01-19T01:05:08.810Z,99220.75
2023-01-19T01:07:44.755Z,99215.91
2023-01-19T01:10:13.136Z,99239.09
2023-01-19T01:12:41.839Z,99208.28
2023-01-19T01:15:23.673Z,99197.91
2023-01-19T01:17:53.263Z,99205.53
2023-01-19T01:20:27.192Z,99204.16
2023-01-19T01:22:55.416Z,99232.56
2023-01-19T01:25:24.725Z,99184.19
2023-01-19T01:27:51.941Z,99191.16
2023-01-19T01:30:20.316Z,99188.63
2023-01-19T01:32:47.711Z,99199.75
2023-01-19T01:35:15.353Z,99218.34
2023-01-19T01:37:45.730Z,99195.44
2023-01-19T01:40:16.040Z,99202.94
2023-01-19T01:42:43.879Z,99203.38
2023-01-19T01:45:37.545Z,99206.03
2023-01-19T01:48:27.136Z,99195.25
2023-01-19T01:51:26.047Z,99217.13
2023-01-19T01:54:19.464Z,99195.38
2023-01-19T01:56:52.709Z,99216.81
2023-01-19T01:59:40.256Z,99213.28
2023-01-19T02:02:30.318Z,99256.25
2023-01-19T02:05:04.260Z,99220.56
2023-01-19T02:08:16.155Z,99221.38
2023-01-19T02:11:02.917Z,99208.09
2023-01-19T02:13:31.386Z,99204.47
2023-01-19T02:16:03.076Z,99210.47
2023-01-19T02:18:32.080Z,99197.03
2023-01-19T02:21:36.062Z,99190.91
2023-01-19T02:24:03.344Z,99190.22
2023-01-19T02:26:42.713Z,99190.94
2023-01-19T02:29:12.969Z,99181.53
2023-01-19T02:31:41.354Z,99184.31
2023-01-19T02:34:15.444Z,99215.69
2023-01-19T02:36:56.654Z,99201.50
2023-01-19T02:39:47.710Z,99194.69
2023-01-19T02:42:21.427Z,99211.44
2023-01-19T02:44:50.448Z,99209.44
2023-01-19T02:47:17.680Z,99245.63
2023-01-19T02:49:44.624Z,99194.22
2023-01-19T02:52:17.783Z,99202.38
2023-01-19T02:55:12.708Z,99196.72
2023-01-19T02:57:43.902Z,99184.38
2023-01-19T03:00:47.473Z,99177.84
2023-01-19T03:03:20.284Z,99196.53
2023-01-19T03:06:33.801Z,99187.09
2023-01-19T03:09:13.669Z,99201.97
2023-01-19T03:11:44.819Z,99186.03
2023-01-19T03:14:18.295Z,99211.56
2023-01-19T03:16:55.356Z,99223.88
2023-01-19T03:19:25.058Z,99207.91
2023-01-19T03:21:58.193Z,99212.34
2023-01-19T03:24:29.396Z,99199.19
2023-01-19T03:27:09.870Z,99202.00
2023-01-19T03:29:38.784Z,99214.88
2023-01-19T03:32:12.565Z,99237.78
2023-01-19T03:34:41.307Z,99247.88
2023-01-19T03:37:11.492Z,99268.69
2023-01-19T03:39:38.602Z,99256.31
2023-01-19T03:42:09.822Z,99255.53
2023-01-19T03:44:38.845Z,99262.59
2023-01-19T03:47:08.932Z,99263.50
2023-01-19T03:49:38.034Z,99230.94
2023-01-19T03:52:05.408Z,99274.75
2023-01-19T03:54:32.600Z,99236.06
2023-01-19T03:56:59.691Z,99248.97
2023-01-19T03:59:27.029Z,99279.88
2023-01-19T04:01:54.082Z,99252.69
2023-01-19T04:04:21.339Z,99275.31
2023-01-19T04:06:48.447Z,99258.94
2023-01-19T04:09:15.432Z,99271.72
2023-01-19T04:11:42.531Z,99299.88
2023-01-19T04:14:09.547Z,99302.50
2023-01-19T04:16:36.650Z,99299.34
2023-01-19T04:19:03.679Z,99310.16
2023-01-19T04:21:30.782Z,99313.09
2023-01-19T04:23:57.798Z,99318.25
2023-01-19T04:26:24.940Z,99364.84
2023-01-19T04:28:51.993Z,99328.53
2023-01-19T04:31:19.614Z,99305.38
2023-01-19T04:33:46.657Z,99304.56
2023-01-19T04:36:13.716Z,99293.03
2023-01-19T04:38:40.806Z,99285.84
2023-01-19T04:41:07.829Z,99299.31
2023-01-19T04:43:34.782Z,99288.94
2023-01-19T04:46:02.364Z,99300.28
2023-01-19T04:48:29.870Z,99303.88
2023-01-19T04:50:56.937Z,99298.59
2023-01-19T04:53:24.021Z,99299.47
2023-01-19T04:55:55.579Z,99299.47
2023-01-19T04:58:22.741Z,99341.03
2023-01-19T05:00:51.367Z,99292.50
2023-01-19T05:03:19.527Z,99295.31
2023-01-19T05:05:46.979Z,99314.22
2023-01-19T05:08:14.136Z,99307.78
2023-01-19T05:10:41.193Z,99339.16
2023-01-19T05:13:08.237Z,99309.63
2023-01-19T05:15:35.249Z,99329.19
2023-01-19T05:18:02.304Z,99321.44
2023-01-19T05:20:29.340Z,99304.91
2023-01-19T05:22:56.379Z,99323.09
2023-01-19T05:25:23.451Z,99331.97
2023-01-19T05:27:50.489Z,99323.28
2023-01-19T05:30:17.834Z,99335.22
2023-01-19T05:32:44.919Z,99327.59
2023-01-19T05:35:13.622Z,99333.41
2023-01-19T05:37:40.607Z,99362.56
2023-01-19T05:40:08.796Z,99344.78
2023-01-19T05:42:36.671Z,99352.31
2023-01-19T05:45:04.480Z,99343.72
2023-01-19T05:47:32.352Z,99339.31
2023-01-19T05:49:59.411Z,99360.00
2023-01-19T05:52:26.471Z,99349.63
2023-01-19T05:54:55.302Z,99362.56
2023-01-19T05:57:23.003Z,99367.94
2023-01-19T05:59:50.122Z,99375.75
2023-01-19T06:02:17.403Z,99373.25
2023-01-19T06:04:44.928Z,99375.34
2023-01-19T06:07:12.099Z,99359.69
2023-01-19T06:09:39.232Z,99360.81
2023-01-19T06:12:06.603Z,99371.38
2023-01-19T06:14:33.761Z,99368.06
2023-01-19T06:17:00.823Z,99374.44
2023-01-19T06:19:27.855Z,99371.53
2023-01-19T06:21:54.931Z,99382.50
2023-01-19T06:24:23.313Z,99395.88
2023-01-19T06:26:50.343Z,99410.69
2023-01-19T06:29:18.477Z,99405.31
2023-01-19T06:31:45.577Z,99409.22
2023-01-19T06:34:12.697Z,99405.72
2023-01-19T06:36:39.841Z,99417.97
2023-01-19T06:39:07.003Z,99394.94
2023-01-19T06:41:34.657Z,99413.09
2023-01-19T06:44:02.201Z,99403.81
2023-01-19T06:46:29.711Z,99387.00
2023-01-19T06:48:57.014Z,99389.78
2023-01-19T06:51:24.399Z,99394.78
2023-01-19T06:53:51.405Z,99413.72
2023-01-19T06:56:18.468Z,99403.16
2023-01-19T06:58:47.913Z,99411.47
2023-01-19T07:01:15.116Z,99397.03
2023-01-19T07:03:42.535Z,99425.25
2023-01-19T07:06:09.790Z,99413.44
2023-01-19T07:08:37.737Z,99420.66
2023-01-19T07:11:22.251Z,99420.81
2023-01-19T07:13:55.836Z,99422.91
2023-01-19T07:16:23.923Z,99413.56
2023-01-19T07:18:51.224Z,99406.19
2023-01-19T07:21:19.294Z,99410.66
2023-01-19T07:23:50.074Z,99426.13
2023-01-19T07:26:19.996Z,99435.84
2023-01-19T07:28:50.314Z,99420.41
2023-01-19T07:31:18.288Z,99430.13
2023-01-19T07:33:45.880Z,99422.09
2023-01-19T07:36:13.717Z,99429.31
2023-01-19T07:38:40.777Z,99449.06
2023-01-19T07:41:09.888Z,99460.06
2023-01-19T07:43:36.994Z,99473.84
2023-01-19T07:46:05.688Z,99472.03
2023-01-19T07:48:33.032Z,99486.63
2023-01-19T07:51:01.579Z,99477.97
2023-01-19T07:53:28.567Z,99476.06
2023-01-19T07:55:56.821Z,99488.59
2023-01-19T07:58:24.912Z,99481.63
2023-01-19T08:00:52.346Z,99476.88
2023-01-19T08:03:19.595Z,99488.16
2023-01-19T08:05:51.796Z,99500.00
2023-01-19T08:08:19.939Z,99512.25
2023-01-19T08:10:50.341Z,99505.28
2023-01-19T08:13:17.611Z,99506.41
2023-01-19T08:15:45.027Z,99509.19
2023-01-19T08:18:12.148Z,99497.47
2023-01-19T08:20:39.351Z,99532.28
2023-01-19T08:23:06.376Z,99524.50
2023-01-19T08:25:38.537Z,99524.22
2023-01-19T08:28:07.394Z,99529.22
2023-01-19T08:30:35.595Z,99538.00
2023-01-19T08:33:08.243Z,99545.78
2023-01-19T08:35:37.934Z,99553.31
2023-01-19T08:38:06.256Z,99548.03
2023-01-19T08:40:38.879Z,99548.75
2023-01-19T08:43:08.544Z,99544.69
2023-01-19T08:45:37.648Z,99544.28
2023-01-19T08:48:06.494Z,99538.16
2023-01-19T08:50:34.660Z,99536.19
2023-01-19T08:53:03.701Z,99539.56
2023-01-19T08:55:30.974Z,99532.59
2023-01-19T08:58:00.244Z,99533.16
2023-01-19T09:00:27.760Z,99545.69
2023-01-19T09:02:55.141Z,99526.19
2023-01-19T09:05:22.422Z,99533.16
2023-01-19T09:07:50.035Z,99526.31
2023-01-19T09:10:18.095Z,99527.00
2023-01-19T09:12:46.555Z,99534.81
2023-01-19T09:15:16.624Z,99542.59
2023-01-19T09:17:43.616Z,99526.72
2023-01-19T09:20:11.087Z,99530.91
2023-01-19T09:22:39.776Z,99534.53
2023-01-19T09:25:08.033Z,99511.97
2023-01-19T09:27:35.228Z,99501.13
2023-01-19T09:30:03.701Z,99508.38
2023-01-19T09:32:32.485Z,99519.22
2023-01-19T09:34:59.487Z,99497.78
2023-01-19T09:37:26.508Z,99502.81
2023-01-19T09:39:53.561Z,99508.38
2023-01-19T09:42:47.540Z,99516.16
2023-01-19T09:45:22.298Z,99525.34
2023-01-19T09:47:50.611Z,99520.59
2023-01-19T09:50:34.108Z,99521.44
2023-01-19T09:53:14.026Z,99550.06
2023-01-19T09:55:42.745Z,99523.63
2023-01-19T09:58:16.379Z,99538.94
2023-01-19T10:01:04.329Z,99515.84
2023-01-19T10:03:34.623Z,99530.06
2023-01-19T10:06:04.641Z,99548.50
2023-01-19T10:09:00.931Z,99538.38
2023-01-19T10:11:51.525Z,99541.13
2023-01-19T10:14:59.425Z,99529.47
2023-01-19T10:17:43.711Z,99539.63
2023-01-19T10:20:19.822Z,99533.31
2023-01-19T10:22:49.934Z,99544.72
2023-01-19T10:25:21.648Z,99532.72
2023-01-19T10:27:48.759Z,99532.44
2023-01-19T10:30:23.577Z,99518.00
2023-01-19T10:32:51.289Z,99511.44
2023-01-19T10:35:24.432Z,99526.84
2023-01-19T10:37:56.413Z,99528.28
2023-01-19T10:40:40.024Z,99512.72
2023-01-19T10:43:34.908Z,99519.97
2023-01-19T10:46:45.768Z,99529.53
2023-01-19T10:49:26.782Z,99551.81
2023-01-19T10:51:55.414Z,99529.66
2023-01-19T10:54:23.720Z,99525.91
2023-01-19T10:56:59.317Z,99533.41
2023-01-19T10:59:53.466Z,99548.31
2023-01-19T11:02:22.158Z,99538.41
2023-01-19T11:04:53.279Z,99534.94
2023-01-19T11:07:24.317Z,99537.84
2023-01-19T11:10:22.713Z,99544.16
2023-01-19T11:13:07.881Z,99541.31
2023-01-19T11:15:57.685Z,99566.72
2023-01-19T11:18:30.054Z,99557.97
2023-01-19T11:21:02.395Z,99559.53
2023-01-19T11:23:33.795Z,99550.88
2023-01-19T11:26:02.637Z,99536.75
2023-01-19T11:28:35.985Z,99566.34
2023-01-19T11:31:16.792Z,99557.41
2023-01-19T11:33:53.315Z,99569.91
2023-01-19T11:36:26.835Z,99583.66
2023-01-19T11:38:59.852Z,99569.91
2023-01-19T11:41:29.758Z,99572.81
2023-01-19T11:44:00.400Z,99572.56
2023-01-19T11:46:33.520Z,99567.19
2023-01-19T11:49:08.529Z,99565.25
2023-01-19T11:52:06.603Z,99566.91
2023-01-19T11:54:37.941Z,99555.81
2023-01-19T11:57:13.054Z,99568.56
2023-01-19T11:59:40.133Z,99578.88
2023-01-19T12:02:30.756Z,99589.19
2023-01-19T12:05:06.484Z,99591.41
2023-01-19T12:07:36.362Z,99592.53
2023-01-19T12:10:28.437Z,99586.72
2023-01-19T12:12:57.561Z,99592.31
2023-01-19T12:15:39.048Z,99609.00
2023-01-19T12:18:12.395Z,99599.81
2023-01-19T12:20:47.346Z,99612.91
2023-01-19T12:23:24.262Z,99638.13
2023-01-19T12:26:15.645Z,99626.16
2023-01-19T12:28:47.080Z,99616.94
2023-01-19T12:31:17.909Z,99617.47
2023-01-19T12:33:45.793Z,99610.22
2023-01-19T12:36:33.254Z,99636.38
2023-01-19T12:39:29.560Z,99627.22
2023-01-19T12:42:14.437Z,99630.69
2023-01-19T12:44:42.946Z,99625.03
2023-01-19T12:47:16.154Z,99630.81
2023-01-19T12:49:46.331Z,99632.91
2023-01-19T12:52:34.480Z,99634.59
2023-01-19T12:55:13.611Z,99628.94
2023-01-19T12:57:59.015Z,99617.81
2023-01-19T13:00:26.215Z,99620.63
2023-01-19T13:02:58.933Z,99617.38
2023-01-19T13:05:33.117Z,99624.19
2023-01-19T13:08:03.564Z,99623.63
2023-01-19T13:11:10.901Z,99619.75
2023-01-19T13:13:58.149Z,99623.03
2023-01-19T13:16:27.891Z,99619.66
2023-01-19T13:19:02.194Z,99611.47
2023-01-19T13:21:32.652Z,99601.53
2023-01-19T13:24:16.812Z,99593.09
2023-01-19T13:26:49.811Z,99612.63
2023-01-19T13:29:26.763Z,99608.44
2023-01-19T13:32:02.423Z,99608.69
2023-01-19T13:34:33.656Z,99598.66
2023-01-19T13:37:02.136Z,99600.09
2023-01-19T13:39:34.917Z,99609.72
2023-01-19T13:42:06.263Z,99609.72
2023-01-19T13:44:39.427Z,99597.75
2023-01-19T13:47:13.596Z,99602.06
2023-01-19T13:49:44.835Z,99592.72
2023-01-19T13:52:14.506Z,99607.41
2023-01-19T13:54:56.916Z,99613.25
2023-01-19T13:57:26.718Z,99639.63
2023-01-19T14:00:14.760Z,99634.69
2023-01-19T14:03:18.611Z,99648.19
2023-01-19T14:05:45.752Z,99662.09
2023-01-19T14:08:15.221Z,99659.09
2023-01-19T14:10:44.381Z,99666.16
2023-01-19T14:13:29.880Z,99659.94
2023-01-19T14:16:04.481Z,99659.94
2023-01-19T14:18:37.163Z,99674.34
2023-01-19T14:21:09.029Z,99658.00
2023-01-19T14:24:12.910Z,99665.72
2023-01-19T14:26:52.142Z,99684.88
2023-01-19T14:29:21.926Z,99657.81
2023-01-19T14:32:05.407Z,99653.22
2023-01-19T14:34:32.453Z,99664.72
2023-01-19T14:37:00.452Z,99666.56
2023-01-19T14:39:32.771Z,99652.38
2023-01-19T14:42:07.040Z,99655.16
2023-01-19T14:44:41.317Z,99673.09
2023-01-19T14:47:25.452Z,99672.25
2023-01-19T14:49:54.784Z,99666.00
2023-01-19T14:52:27.900Z,99668.91
2023-01-19T14:54:57.451Z,99671.25
2023-01-19T14:57:28.078Z,99671.88
2023-01-19T14:59:56.019Z,99654.59
2023-01-19T15:02:24.287Z,99640.09
2023-01-19T15:04:55.382Z,99636.38
2023-01-19T15:07:25.461Z,99648.19
2023-01-19T15:09:53.068Z,99645.13
2023-01-19T15:12:24.155Z,99647.25
2023-01-19T15:14:51.261Z,99643.16
2023-01-19T15:17:25.816Z,99666.81
2023-01-19T15:19:54.375Z,99665.97
2023-01-19T15:22:22.704Z,99670.03
2023-01-19T15:24:50.154Z,99665.47
2023-01-19T15:27:17.686Z,99676.97
2023-01-19T15:29:46.248Z,99674.59
2023-01-19T15:32:14.311Z,99672.41
2023-01-19T15:34:42.248Z,99694.75
2023-01-19T15:37:09.227Z,99694.25
2023-01-19T15:39:36.230Z,99693.53
2023-01-19T15:42:03.495Z,99668.38
2023-01-19T15:44:30.664Z,99674.75
2023-01-19T15:46:57.677Z,99665.28
2023-01-19T15:49:25.002Z,99660.16
2023-01-19T15:51:52.131Z,99642.75
2023-01-19T15:54:20.149Z,99646.63
2023-01-19T15:56:47.883Z,99647.47
2023-01-19T15:59:15.112Z,99646.50
2023-01-19T16:01:42.819Z,99640.84
2023-01-19T16:04:11.910Z,99653.06
2023-01-19T16:06:39.221Z,99629.25
2023-01-19T16:09:06.243Z,99641.09
2023-01-19T16:11:35.513Z,99622.63
2023-01-19T16:14:02.728Z,99616.28
2023-01-19T16:16:30.428Z,99620.50
2023-01-19T16:18:58.117Z,99624.59
2023-01-19T16:21:25.220Z,99599.31
2023-01-19T16:23:52.325Z,99585.75
2023-01-19T16:26:34.542Z,99591.28
2023-01-19T16:29:09.061Z,99587.00
2023-01-19T16:31:40.382Z,99591.78
2023-01-19T16:34:08.675Z,99595.13
2023-01-19T16:36:38.475Z,99594.88
2023-01-19T16:39:08.112Z,99604.34
2023-01-19T16:41:36.327Z,99596.28
2023-01-19T16:44:04.296Z,99593.28
2023-01-19T16:46:35.469Z,99613.78
2023-01-19T16:49:24.228Z,99603.22
2023-01-19T16:51:53.511Z,99589.69
2023-01-19T16:54:23.781Z,99580.63
2023-01-19T16:56:51.079Z,99588.19
2023-01-19T16:59:19.017Z,99586.00
2023-01-19T17:01:46.608Z,99580.22
2023-01-19T17:04:14.679Z,99588.34
2023-01-19T17:06:41.930Z,99598.69
2023-01-19T17:09:09.998Z,99587.41
2023-01-19T17:11:40.819Z,99591.28
2023-01-19T17:14:12.920Z,99582.66
2023-01-19T17:16:40.936Z,99583.63
2023-01-19T17:19:08.981Z,99592.84
2023-01-19T17:21:36.084Z,99577.94
2023-01-19T17:24:03.491Z,99565.25
2023-01-19T17:26:31.297Z,99574.78
2023-01-19T17:28:59.922Z,99574.53
2023-01-19T17:31:27.786Z,99566.41
2023-01-19T17:33:54.945Z,99570.50
2023-01-19T17:36:25.457Z,99573.72
2023-01-19T17:38:54.457Z,99581.38
2023-01-19T17:41:29.626Z,99582.31
2023-01-19T17:43:57.748Z,99593.47
2023-01-19T17:46:27.125Z,99593.22
2023-01-19T17:49:00.324Z,99583.09
2023-01-19T17:51:28.955Z,99582.84
2023-01-19T17:53:57.299Z,99580.22
2023-01-19T17:56:30.063Z,99588.84
2023-01-19T17:58:58.769Z,99599.44
2023-01-19T18:01:40.267Z,99587.41
2023-01-19T18:04:09.187Z,99585.25
2023-01-19T18:06:37.801Z,99590.53
2023-01-19T18:09:07.563Z,99584.28
2023-01-19T18:11:35.593Z,99589.47
2023-01-19T18:14:03.064Z,99593.47
2023-01-19T18:16:30.745Z,99580.72
2023-01-19T18:18:58.513Z,99578.22
2023-01-19T18:21:30.640Z,99574.13
2023-01-19T18:24:02.874Z,99579.22
2023-01-19T18:26:31.860Z,99581.38
2023-01-19T18:28:59.238Z,99567.44
2023-01-19T18:31:27.745Z,99570.75
2023-01-19T18:33:55.370Z,99572.44
2023-01-19T18:36:22.823Z,99568.13
2023-01-19T18:38:50.056Z,99560.59
2023-01-19T18:41:20.928Z,99571.41
2023-01-19T18:43:48.810Z,99572.13
2023-01-19T18:46:16.755Z,99555.19
2023-01-19T18:48:44.185Z,99563.25
2023-01-19T18:51:14.737Z,99556.63
2023-01-19T18:53:42.638Z,99552.75
2023-01-19T18:56:12.934Z,99549.72
2023-01-19T18:58:40.546Z,99539.06
2023-01-19T19:01:19.534Z,99553.91
2023-01-19T19:03:46.863Z,99551.41
2023-01-19T19:06:16.118Z,99549.97
2023-01-19T19:08:44.283Z,99558.88
2023-01-19T19:11:14.020Z,99543.28
2023-01-19T19:13:41.778Z,99562.72
2023-01-19T19:16:10.825Z,99558.50
2023-01-19T19:18:39.658Z,99555.41
2023-01-19T19:21:08.603Z,99559.97
2023-01-19T19:23:37.116Z,99548.44
2023-01-19T19:26:09.818Z,99566.41
2023-01-19T19:28:38.609Z,99569.13
2023-01-19T19:31:32.087Z,99570.06
2023-01-19T19:33:59.628Z,99575.94
2023-01-19T19:36:28.705Z,99569.91
2023-01-19T19:38:55.787Z,99582.94
2023-01-19T19:41:27.209Z,99566.34
2023-01-19T19:43:59.429Z,99559.97
2023-01-19T19:46:26.976Z,99564.47
2023-01-19T19:48:54.744Z,99557.41
2023-01-19T19:51:27.287Z,99558.69
2023-01-19T19:53:56.454Z,99549.78
2023-01-19T19:56:26.144Z,99568.28
2023-01-19T19:58:55.553Z,99573.69
2023-01-19T20:01:27.605Z,99573.53
2023-01-19T20:03:57.293Z,99567.75
2023-01-19T20:06:26.314Z,99571.81
2023-01-19T20:08:55.623Z,99560.81
2023-01-19T20:11:26.110Z,99557.75
2023-01-19T20:13:53.700Z,99561.84
2023-01-19T20:16:22.708Z,99572.41
2023-01-19T20:18:53.957Z,99555.28
2023-01-19T20:21:33.151Z,99545.94
2023-01-19T20:24:08.410Z,99528.81
2023-01-19T20:26:40.486Z,99533.59
2023-01-19T20:29:08.343Z,99521.03
2023-01-19T20:31:39.030Z,99529.81
2023-01-19T20:34:09.012Z,99519.97
2023-01-19T20:36:36.733Z,99514.19
2023-01-19T20:39:09.668Z,99533.19
2023-01-19T20:41:43.540Z,99532.19
2023-01-19T20:44:16.538Z,99521.09
2023-01-19T20:46:58.725Z,99531.66
2023-01-19T20:49:26.021Z,99522.25
2023-01-19T20:51:53.662Z,99534.34
2023-01-19T20:54:24.522Z,99555.84
2023-01-19T20:56:51.628Z,99545.22
2023-01-19T20:59:19.277Z,99535.81
2023-01-19T21:01:48.608Z,99544.91
2023-01-19T21:04:17.488Z,99543.25
2023-01-19T21:06:45.092Z,99542.31
2023-01-19T21:09:12.496Z,99537.25
2023-01-19T21:11:40.179Z,99528.34
2023-01-19T21:14:08.012Z,99520.97
2023-01-19T21:16:36.019Z,99527.84
2023-01-19T21:19:04.238Z,99522.81
2023-01-19T21:21:32.055Z,99520.78
2023-01-19T21:24:00.852Z,99536.78
2023-01-19T21:26:31.766Z,99537.72
2023-01-19T21:29:01.022Z,99532.63
2023-01-19T21:31:28.592Z,99541.09
2023-01-19T21:33:57.403Z,99548.50
2023-01-19T21:36:24.792Z,99540.16
2023-01-19T21:38:52.609Z,99556.56
2023-01-19T21:41:20.032Z,99539.31
2023-01-19T21:43:47.671Z,99535.56
2023-01-19T21:46:21.912Z,99522.63
2023-01-19T21:48:49.055Z,99522.53
2023-01-19T21:51:16.522Z,99528.81
2023-01-19T21:53:43.547Z,99533.81
2023-01-19T21:56:11.607Z,99512.97
2023-01-19T21:58:38.931Z,99513.81
2023-01-19T22:01:14.000Z,99528.00
2023-01-19T22:03:42.213Z,99517.13
2023-01-19T22:06:12.165Z,99526.75
2023-01-19T22:08:40.041Z,99520.91
2023-01-19T22:11:09.512Z,99527.84
2023-01-19T22:13:38.773Z,99521.22
2023-01-19T22:16:11.648Z,99526.22
2023-01-19T22:18:40.610Z,99518.84
2023-01-19T22:21:08.789Z,99520.78
2023-01-19T22:23:36.157Z,99538.16
2023-01-19T22:26:03.852Z,99501.88
2023-01-19T22:28:31.294Z,99506.56
2023-01-19T22:31:06.574Z,99506.75
2023-01-19T22:33:33.924Z,99492.59
2023-01-19T22:36:30.821Z,99493.44
2023-01-19T22:39:00.646Z,99502.03
2023-01-19T22:41:46.669Z,99508.31
2023-01-19T22:44:16.663Z,99505.84
2023-01-19T22:46:44.228Z,99516.66
2023-01-19T22:49:15.067Z,99505.28
2023-01-19T22:51:42.502Z,99521.97
2023-01-19T22:54:10.127Z,99521.06
2023-01-19T22:56:38.597Z,99522.78
2023-01-19T22:59:06.904Z,99532.78
2023-01-19T23:01:40.171Z,99530.16
2023-01-19T23:04:11.662Z,99541.72
2023-01-19T23:06:38.750Z,99525.81
2023-01-19T23:09:09.409Z,99528.34
2023-01-19T23:11:39.148Z,99524.88
2023-01-19T23:14:07.595Z,99540.84
2023-01-19T23:16:35.351Z,99527.22
2023-01-19T23:19:03.326Z,99532.78
2023-01-19T23:21:32.420Z,99535.03
2023-01-19T23:24:02.532Z,99532.38
2023-01-19T23:26:30.937Z,99546.31
2023-01-19T23:29:01.337Z,99536.38
2023-01-19T23:31:30.916Z,99534.75
2023-01-19T23:34:00.849Z,99533.09
2023-01-19T23:36:29.819Z,99532.25
2023-01-19T23:38:59.980Z,99538.66
2023-01-19T23:41:29.263Z,99533.66
2023-01-19T23:43:56.270Z,99540.47
2023-01-19T23:46:23.297Z,99534.63
2023-01-19T23:48:50.718Z,99521.25
2023-01-19T23:51:17.747Z,99539.50
2023-01-19T23:53:45.392Z,99547.31
2023-01-19T23:56:18.129Z,99537.00
2023-01-19T23:58:47.281Z,99532.72
